createdAt,value
2023-03-27T00:01:58.258Z,81.16
2023-03-27T00:04:27.222Z,81.28
2023-03-27T00:06:56.013Z,80.90
2023-03-27T00:09:24.884Z,81.78
2023-03-27T00:11:53.684Z,81.67
2023-03-27T00:14:22.893Z,82.04
2023-03-27T00:16:51.947Z,81.92
2023-03-27T00:19:20.951Z,81.42
2023-03-27T00:21:49.696Z,81.58
2023-03-27T00:24:18.833Z,82.14
2023-03-27T00:26:47.563Z,81.97
2023-03-27T00:29:16.588Z,82.14
2023-03-27T00:31:45.419Z,81.93
2023-03-27T00:34:14.625Z,82.08
2023-03-27T00:36:44.631Z,82.32
2023-03-27T00:39:14.270Z,82.79
2023-03-27T00:41:43.569Z,83.20
2023-03-27T00:44:28.303Z,83.17
2023-03-27T00:46:58.116Z,83.46
2023-03-27T00:49:30.466Z,83.75
2023-03-27T00:52:00.837Z,83.81
2023-03-27T00:54:35.734Z,84.14
2023-03-27T00:57:10.197Z,83.72
2023-03-27T00:59:43.339Z,83.93
2023-03-27T01:02:16.741Z,84.06
2023-03-27T01:04:51.028Z,84.68
2023-03-27T01:07:23.304Z,84.86
2023-03-27T01:09:54.550Z,85.24
2023-03-27T01:12:48.139Z,84.80
2023-03-27T01:15:49.589Z,84.33
2023-03-27T01:18:46.994Z,84.35
2023-03-27T01:21:35.607Z,85.05
2023-03-27T01:24:20.533Z,84.96
2023-03-27T01:26:53.966Z,84.41
2023-03-27T01:29:33.039Z,84.75
2023-03-27T01:32:33.079Z,85.25
2023-03-27T01:35:26.168Z,84.77
2023-03-27T01:38:07.070Z,84.61
2023-03-27T01:41:00.207Z,84.62
2023-03-27T01:43:54.313Z,85.26
2023-03-27T01:46:43.906Z,84.13
2023-03-27T01:49:31.106Z,84.61
2023-03-27T01:52:11.050Z,82.72
2023-03-27T01:54:52.035Z,82.19
2023-03-27T01:57:36.879Z,81.52
2023-03-27T02:00:25.355Z,81.29
2023-03-27T02:03:21.657Z,80.73
2023-03-27T02:06:16.794Z,80.62
2023-03-27T02:09:22.680Z,79.74
2023-03-27T02:12:09.716Z,79.67
2023-03-27T02:14:51.044Z,79.32
2023-03-27T02:17:27.105Z,79.07
2023-03-27T02:20:03.532Z,78.56
2023-03-27T02:22:37.661Z,78.37
2023-03-27T02:25:27.715Z,77.49
2023-03-27T02:28:38.204Z,77.67
2023-03-27T02:31:34.102Z,76.64
2023-03-27T02:34:58.014Z,76.00
2023-03-27T02:37:39.305Z,76.13
2023-03-27T02:40:45.988Z,74.93
2023-03-27T02:44:09.491Z,74.65
2023-03-27T02:47:14.014Z,73.76
2023-03-27T02:49:50.025Z,74.13
2023-03-27T02:52:32.258Z,73.97
2023-03-27T02:55:07.873Z,72.86
2023-03-27T02:57:40.220Z,73.34
2023-03-27T03:00:34.801Z,73.38
2023-03-27T03:03:28.726Z,72.87
2023-03-27T03:06:08.168Z,72.38
2023-03-27T03:08:39.409Z,71.60
2023-03-27T03:11:14.348Z,71.65
2023-03-27T03:13:43.518Z,72.10
2023-03-27T03:16:12.473Z,72.03
2023-03-27T03:18:41.800Z,71.89
2023-03-27T03:21:10.684Z,72.49
2023-03-27T03:23:40.200Z,72.19
2023-03-27T03:26:09.637Z,72.15
2023-03-27T03:29:00.852Z,72.30
2023-03-27T03:31:44.202Z,72.04
2023-03-27T03:34:23.438Z,70.91
2023-03-27T03:36:56.137Z,71.17
2023-03-27T03:39:31.039Z,70.54
2023-03-27T03:42:00.028Z,69.56
2023-03-27T03:44:28.879Z,69.93
2023-03-27T03:46:59.181Z,68.21
2023-03-27T03:49:28.171Z,67.91
2023-03-27T03:52:03.627Z,67.94
2023-03-27T03:54:34.677Z,67.66
2023-03-27T03:57:04.143Z,67.72
2023-03-27T03:59:35.183Z,66.94
2023-03-27T04:02:30.370Z,67.81
2023-03-27T04:05:09.528Z,67.77
2023-03-27T04:07:41.823Z,66.94
2023-03-27T04:10:30.639Z,66.73
2023-03-27T04:13:01.835Z,66.79
2023-03-27T04:15:38.657Z,65.83
2023-03-27T04:18:31.195Z,65.70
2023-03-27T04:21:03.443Z,65.89
2023-03-27T04:23:32.517Z,63.91
2023-03-27T04:26:04.838Z,62.78
2023-03-27T04:29:03.268Z,63.65
2023-03-27T04:32:07.388Z,62.53
2023-03-27T04:34:42.995Z,61.63
2023-03-27T04:37:32.245Z,63.10
2023-03-27T04:40:18.849Z,62.45
2023-03-27T04:42:48.028Z,62.15
2023-03-27T04:45:21.109Z,62.33
2023-03-27T04:47:52.498Z,61.89
2023-03-27T04:50:22.506Z,60.39
2023-03-27T04:52:52.841Z,60.67
2023-03-27T04:55:26.705Z,59.59
2023-03-27T04:57:58.393Z,59.00
2023-03-27T05:00:28.729Z,59.33
2023-03-27T05:03:30.057Z,59.26
2023-03-27T05:06:09.421Z,59.78
2023-03-27T05:08:39.247Z,58.16
2023-03-27T05:11:08.752Z,57.63
2023-03-27T05:13:42.701Z,57.19
2023-03-27T05:16:13.243Z,55.68
2023-03-27T05:18:46.971Z,56.85
2023-03-27T05:21:15.870Z,55.46
2023-03-27T05:23:44.944Z,55.46
2023-03-27T05:26:14.149Z,56.59
2023-03-27T05:28:52.225Z,54.58
2023-03-27T05:31:21.413Z,54.36
2023-03-27T05:33:56.579Z,53.43
2023-03-27T05:36:29.448Z,52.26
2023-03-27T05:38:59.524Z,51.58
2023-03-27T05:41:42.203Z,47.91
2023-03-27T05:44:11.396Z,49.24
2023-03-27T05:46:43.646Z,51.52
2023-03-27T05:49:18.841Z,53.15
2023-03-27T05:51:53.642Z,52.65
2023-03-27T05:54:22.871Z,52.61
2023-03-27T05:56:57.482Z,52.28
2023-03-27T05:59:27.477Z,50.56
2023-03-27T06:02:02.864Z,50.61
2023-03-27T06:04:46.081Z,50.62
2023-03-27T06:07:27.693Z,50.07
2023-03-27T06:10:02.481Z,50.32
2023-03-27T06:12:31.436Z,49.63
2023-03-27T06:15:12.412Z,51.98
2023-03-27T06:17:49.266Z,49.99
2023-03-27T06:20:20.947Z,48.93
2023-03-27T06:23:04.572Z,51.01
2023-03-27T06:25:39.812Z,49.13
2023-03-27T06:28:12.460Z,49.63
2023-03-27T06:30:50.893Z,50.01
2023-03-27T06:33:33.943Z,49.37
2023-03-27T06:36:07.007Z,49.16
2023-03-27T06:38:38.490Z,48.80
2023-03-27T06:41:07.606Z,46.54
2023-03-27T06:44:09.089Z,47.65
2023-03-27T06:47:03.288Z,47.60
2023-03-27T06:49:48.790Z,45.92
2023-03-27T06:52:23.222Z,47.45
2023-03-27T06:54:53.942Z,45.88
2023-03-27T06:57:23.128Z,46.24
2023-03-27T06:59:58.112Z,45.62
2023-03-27T07:02:58.914Z,46.42
2023-03-27T07:05:49.868Z,45.47
2023-03-27T07:08:24.485Z,43.92
2023-03-27T07:11:10.678Z,44.38
2023-03-27T07:13:54.374Z,44.60
2023-03-27T07:16:28.051Z,45.51
2023-03-27T07:19:01.204Z,43.94
2023-03-27T07:21:33.189Z,45.71
2023-03-27T07:24:02.673Z,43.74
2023-03-27T07:26:37.851Z,43.34
2023-03-27T07:29:23.196Z,42.10
2023-03-27T07:31:58.911Z,43.83
2023-03-27T07:34:35.992Z,42.51
2023-03-27T07:37:07.844Z,43.44
2023-03-27T07:39:39.892Z,43.92
2023-03-27T07:42:11.992Z,43.55
2023-03-27T07:45:01.360Z,43.84
2023-03-27T07:47:33.514Z,43.94
2023-03-27T07:50:13.746Z,44.46
2023-03-27T07:52:48.414Z,44.86
2023-03-27T07:55:19.871Z,44.80
2023-03-27T07:58:03.216Z,44.78
2023-03-27T08:00:40.797Z,44.53
2023-03-27T08:03:16.167Z,44.66
2023-03-27T08:06:00.964Z,44.15
2023-03-27T08:08:34.052Z,42.90
2023-03-27T08:11:06.192Z,44.11
2023-03-27T08:13:41.116Z,42.32
2023-03-27T08:16:15.868Z,43.78
2023-03-27T08:18:48.001Z,43.82
2023-03-27T08:21:18.436Z,43.51
2023-03-27T08:23:51.723Z,42.22
2023-03-27T08:26:30.068Z,42.16
2023-03-27T08:29:03.014Z,42.10
2023-03-27T08:31:34.412Z,42.98
2023-03-27T08:34:05.941Z,43.31
2023-03-27T08:37:00.752Z,44.78
2023-03-27T08:39:49.722Z,45.11
2023-03-27T08:42:30.921Z,43.26
2023-03-27T08:45:21.924Z,44.31
2023-03-27T08:48:03.779Z,45.66
2023-03-27T08:50:38.932Z,46.11
2023-03-27T08:53:33.926Z,44.40
2023-03-27T08:56:06.150Z,43.78
2023-03-27T08:58:40.237Z,43.52
2023-03-27T09:01:41.988Z,42.97
2023-03-27T09:04:37.544Z,42.15
2023-03-27T09:07:33.978Z,41.36
2023-03-27T09:10:16.250Z,42.51
2023-03-27T09:13:05.696Z,42.29
2023-03-27T09:15:42.986Z,41.84
2023-03-27T09:18:22.322Z,42.88
2023-03-27T09:21:04.518Z,42.72
2023-03-27T09:23:55.406Z,42.36
2023-03-27T09:27:06.707Z,43.86
2023-03-27T09:29:50.858Z,43.96
2023-03-27T09:32:45.925Z,43.90
2023-03-27T09:35:16.523Z,44.50
2023-03-27T09:37:47.548Z,43.01
2023-03-27T09:40:44.081Z,42.70
2023-03-27T09:43:24.590Z,44.38
2023-03-27T09:45:56.076Z,42.71
2023-03-27T09:48:58.372Z,42.84
2023-03-27T09:51:37.390Z,42.76
2023-03-27T09:54:08.959Z,43.14
2023-03-27T09:56:45.454Z,43.96
2023-03-27T09:59:59.595Z,42.92
2023-03-27T10:02:32.041Z,43.15
2023-03-27T10:05:23.009Z,43.46
2023-03-27T10:07:56.491Z,43.59
2023-03-27T10:10:46.669Z,43.46
2023-03-27T10:13:30.695Z,42.19
2023-03-27T10:16:07.942Z,43.85
2023-03-27T10:18:58.345Z,44.62
2023-03-27T10:21:40.460Z,43.47
2023-03-27T10:24:19.394Z,42.76
2023-03-27T10:27:24.321Z,42.83
2023-03-27T10:30:34.476Z,43.58
2023-03-27T10:33:43.312Z,43.61
2023-03-27T10:36:48.048Z,43.94
2023-03-27T10:39:21.749Z,44.05
2023-03-27T10:42:14.651Z,44.30
2023-03-27T10:44:50.151Z,43.57
2023-03-27T10:47:33.886Z,45.10
2023-03-27T10:50:34.565Z,46.27
2023-03-27T10:53:21.831Z,47.64
2023-03-27T10:56:06.994Z,47.97
2023-03-27T10:58:48.652Z,47.58
2023-03-27T11:01:45.757Z,48.02
2023-03-27T11:04:39.441Z,47.51
2023-03-27T11:07:18.828Z,46.82
2023-03-27T11:10:03.971Z,46.25
2023-03-27T11:12:38.936Z,47.85
2023-03-27T11:15:27.299Z,46.92
2023-03-27T11:18:04.071Z,47.73
2023-03-27T11:20:53.465Z,46.23
2023-03-27T11:23:39.458Z,47.92
2023-03-27T11:26:37.758Z,47.41
2023-03-27T11:29:36.702Z,48.93
2023-03-27T11:32:20.902Z,48.72
2023-03-27T11:35:03.940Z,49.24
2023-03-27T11:37:57.296Z,49.57
2023-03-27T11:40:50.368Z,47.68
2023-03-27T11:43:21.309Z,47.67
2023-03-27T11:46:29.807Z,48.38
2023-03-27T11:49:27.197Z,48.68
2023-03-27T11:52:27.947Z,48.04
2023-03-27T11:55:18.325Z,46.92
2023-03-27T11:58:01.121Z,48.04
2023-03-27T12:01:09.022Z,47.43
2023-03-27T12:04:15.039Z,47.84
2023-03-27T12:07:04.918Z,48.68
2023-03-27T12:10:07.171Z,48.46
2023-03-27T12:13:42.222Z,48.01
2023-03-27T12:16:23.233Z,48.46
2023-03-27T12:19:38.486Z,48.29
2023-03-27T12:22:43.216Z,49.91
2023-03-27T12:25:29.335Z,49.95
2023-03-27T12:28:25.095Z,49.95
2023-03-27T12:31:42.946Z,50.01
2023-03-27T12:34:33.162Z,49.59
2023-03-27T12:37:04.639Z,50.27
2023-03-27T12:39:44.949Z,50.56
2023-03-27T12:42:16.391Z,50.28
2023-03-27T12:45:15.360Z,49.38
2023-03-27T12:48:08.944Z,49.60
2023-03-27T12:50:56.602Z,50.54
2023-03-27T12:53:27.728Z,50.75
2023-03-27T12:56:20.398Z,50.83
2023-03-27T12:58:54.001Z,50.67
2023-03-27T13:01:51.616Z,51.91
2023-03-27T13:04:47.704Z,54.10
2023-03-27T13:07:37.698Z,54.83
2023-03-27T13:10:28.307Z,54.40
2023-03-27T13:13:10.136Z,54.61
2023-03-27T13:15:44.875Z,54.59
2023-03-27T13:19:00.482Z,54.88
2023-03-27T13:21:46.825Z,54.88
2023-03-27T13:24:38.893Z,54.03
2023-03-27T13:27:34.027Z,53.47
2023-03-27T13:30:04.847Z,53.56
2023-03-27T13:33:25.084Z,53.99
2023-03-27T13:36:01.129Z,54.48
2023-03-27T13:39:16.132Z,52.18
2023-03-27T13:42:23.878Z,52.30
2023-03-27T13:45:07.049Z,52.01
2023-03-27T13:48:05.399Z,51.43
2023-03-27T13:50:55.837Z,52.05
2023-03-27T13:53:52.818Z,51.79
2023-03-27T13:56:53.189Z,52.18
2023-03-27T14:00:11.192Z,52.94
2023-03-27T14:02:54.695Z,53.18
2023-03-27T14:06:04.120Z,53.33
2023-03-27T14:09:01.189Z,53.34
2023-03-27T14:12:03.497Z,53.74
2023-03-27T14:15:16.989Z,53.75
2023-03-27T14:18:27.895Z,54.09
2023-03-27T14:21:04.977Z,54.88
2023-03-27T14:23:53.353Z,55.42
2023-03-27T14:26:36.410Z,55.74
2023-03-27T14:29:06.028Z,56.21
2023-03-27T14:31:45.078Z,56.28
2023-03-27T14:34:25.759Z,56.75
2023-03-27T14:37:31.468Z,57.94
2023-03-27T14:40:21.899Z,58.26
2023-03-27T14:42:53.533Z,58.66
2023-03-27T14:45:28.236Z,58.83
2023-03-27T14:48:03.827Z,59.04
2023-03-27T14:50:43.562Z,59.17
2023-03-27T14:53:18.201Z,59.25
2023-03-27T14:56:17.068Z,59.63
2023-03-27T14:59:18.915Z,60.43
2023-03-27T15:01:55.816Z,60.47
2023-03-27T15:04:28.092Z,60.37
2023-03-27T15:07:16.373Z,60.97
2023-03-27T15:10:07.306Z,61.13
2023-03-27T15:12:55.353Z,61.06
2023-03-27T15:15:41.022Z,61.17
2023-03-27T15:18:26.777Z,61.29
2023-03-27T15:20:57.900Z,61.67
2023-03-27T15:23:31.556Z,61.73
2023-03-27T15:26:10.644Z,62.89
2023-03-27T15:28:59.512Z,63.87
2023-03-27T15:31:31.032Z,63.19
2023-03-27T15:34:11.561Z,64.45
2023-03-27T15:36:44.036Z,64.93
2023-03-27T15:39:22.651Z,64.87
2023-03-27T15:41:54.066Z,65.41
2023-03-27T15:44:26.803Z,66.15
2023-03-27T15:46:57.174Z,66.49
2023-03-27T15:49:38.851Z,67.21
2023-03-27T15:52:33.264Z,67.82
2023-03-27T15:55:04.038Z,67.23
2023-03-27T15:57:33.190Z,67.91
2023-03-27T16:00:09.696Z,68.00
2023-03-27T16:02:42.037Z,67.44
2023-03-27T16:05:19.262Z,67.93
2023-03-27T16:07:49.973Z,68.21
2023-03-27T16:10:34.885Z,68.28
2023-03-27T16:13:07.338Z,68.92
2023-03-27T16:15:43.435Z,69.05
2023-03-27T16:18:25.438Z,69.21
2023-03-27T16:20:54.707Z,69.40
2023-03-27T16:23:23.715Z,69.70
2023-03-27T16:25:52.565Z,69.58
2023-03-27T16:28:21.364Z,70.21
2023-03-27T16:30:50.787Z,70.13
2023-03-27T16:33:23.398Z,70.17
2023-03-27T16:35:53.129Z,70.78
2023-03-27T16:38:22.556Z,70.61
2023-03-27T16:40:51.830Z,70.85
2023-03-27T16:43:20.519Z,70.80
2023-03-27T16:45:49.882Z,70.50
2023-03-27T16:48:18.616Z,70.45
2023-03-27T16:50:47.635Z,70.77
2023-03-27T16:53:16.404Z,71.17
2023-03-27T16:55:45.712Z,71.64
2023-03-27T16:58:15.057Z,71.68
2023-03-27T17:00:44.064Z,71.91
2023-03-27T17:03:13.147Z,72.31
2023-03-27T17:05:44.948Z,72.67
2023-03-27T17:08:17.286Z,73.06
2023-03-27T17:10:46.355Z,72.86
2023-03-27T17:13:15.104Z,73.59
2023-03-27T17:15:44.304Z,73.59
2023-03-27T17:18:13.298Z,74.30
2023-03-27T17:20:42.766Z,74.70
2023-03-27T17:23:12.840Z,74.28
2023-03-27T17:25:43.225Z,74.42
2023-03-27T17:28:12.934Z,74.84
2023-03-27T17:30:56.603Z,74.80
2023-03-27T17:33:30.748Z,75.60
2023-03-27T17:35:59.753Z,75.85
2023-03-27T17:38:29.166Z,75.92
2023-03-27T17:40:58.859Z,75.43
2023-03-27T17:43:28.666Z,75.36
2023-03-27T17:45:57.694Z,76.30
2023-03-27T17:48:27.108Z,75.74
2023-03-27T17:51:08.054Z,75.41
2023-03-27T17:53:39.612Z,75.95
2023-03-27T17:56:09.268Z,75.93
2023-03-27T17:58:38.423Z,75.62
2023-03-27T18:01:20.644Z,75.04
2023-03-27T18:03:50.261Z,75.03
2023-03-27T18:06:19.788Z,74.69
2023-03-27T18:08:48.788Z,74.48
2023-03-27T18:11:17.897Z,74.48
2023-03-27T18:13:52.246Z,74.58
2023-03-27T18:16:22.591Z,75.16
2023-03-27T18:18:53.584Z,74.95
2023-03-27T18:21:23.019Z,75.79
2023-03-27T18:23:53.857Z,75.65
2023-03-27T18:26:23.074Z,75.66
2023-03-27T18:28:53.231Z,75.80
2023-03-27T18:31:22.243Z,75.92
2023-03-27T18:33:51.148Z,75.71
2023-03-27T18:36:20.181Z,75.37
2023-03-27T18:38:49.785Z,74.98
2023-03-27T18:41:18.905Z,74.81
2023-03-27T18:43:47.799Z,75.03
2023-03-27T18:46:19.694Z,74.79
2023-03-27T18:48:51.752Z,75.16
2023-03-27T18:51:20.773Z,75.45
2023-03-27T18:53:51.710Z,76.09
2023-03-27T18:56:20.619Z,76.22
2023-03-27T18:58:49.367Z,77.00
2023-03-27T19:01:18.587Z,76.73
2023-03-27T19:03:47.984Z,76.74
2023-03-27T19:06:20.533Z,77.23
2023-03-27T19:08:49.780Z,76.85
2023-03-27T19:11:19.739Z,77.19
2023-03-27T19:14:07.793Z,77.30
2023-03-27T19:17:06.700Z,77.51
2023-03-27T19:19:55.960Z,77.44
2023-03-27T19:22:47.829Z,77.60
2023-03-27T19:25:28.597Z,78.09
2023-03-27T19:27:57.582Z,77.69
2023-03-27T19:30:26.529Z,78.12
2023-03-27T19:32:56.736Z,78.13
2023-03-27T19:35:26.698Z,78.63
2023-03-27T19:37:55.410Z,79.00
2023-03-27T19:40:24.957Z,78.88
2023-03-27T19:42:53.964Z,79.33
2023-03-27T19:45:22.847Z,79.62
2023-03-27T19:47:51.902Z,79.52
2023-03-27T19:50:20.851Z,79.95
2023-03-27T19:53:08.469Z,80.56
2023-03-27T19:55:38.615Z,80.90
2023-03-27T19:58:07.576Z,80.87
2023-03-27T20:00:40.810Z,81.14
2023-03-27T20:03:11.477Z,80.78
2023-03-27T20:05:49.368Z,80.73
2023-03-27T20:08:20.465Z,80.89
2023-03-27T20:10:51.236Z,81.14
2023-03-27T20:13:22.460Z,81.00
2023-03-27T20:15:54.223Z,81.05
2023-03-27T20:18:24.601Z,81.29
2023-03-27T20:20:56.282Z,81.02
2023-03-27T20:23:34.334Z,81.59
2023-03-27T20:26:04.500Z,81.52
2023-03-27T20:28:37.926Z,82.03
2023-03-27T20:31:08.807Z,82.14
2023-03-27T20:33:38.984Z,81.73
2023-03-27T20:36:09.146Z,82.09
2023-03-27T20:38:38.944Z,81.57
2023-03-27T20:41:09.486Z,81.94
2023-03-27T20:43:40.356Z,81.96
2023-03-27T20:46:12.219Z,81.86
2023-03-27T20:48:54.132Z,82.61
2023-03-27T20:51:25.510Z,82.50
2023-03-27T20:53:58.941Z,82.23
2023-03-27T20:56:29.012Z,82.35
2023-03-27T20:58:58.759Z,82.14
2023-03-27T21:01:29.816Z,82.25
2023-03-27T21:04:03.362Z,82.46
2023-03-27T21:06:35.957Z,82.90
2023-03-27T21:09:07.095Z,83.18
2023-03-27T21:11:38.206Z,83.40
2023-03-27T21:14:08.363Z,83.38
2023-03-27T21:16:38.917Z,82.84
2023-03-27T21:19:08.950Z,83.29
2023-03-27T21:21:39.326Z,82.83
2023-03-27T21:24:09.283Z,82.92
2023-03-27T21:26:38.996Z,82.55
2023-03-27T21:29:11.934Z,82.96
2023-03-27T21:31:42.959Z,82.83
2023-03-27T21:34:12.636Z,82.61
2023-03-27T21:36:41.492Z,83.04
2023-03-27T21:39:11.781Z,83.03
2023-03-27T21:41:40.842Z,83.04
2023-03-27T21:44:09.630Z,83.00
2023-03-27T21:46:38.977Z,82.89
2023-03-27T21:49:07.900Z,83.18
2023-03-27T21:51:37.056Z,83.54
2023-03-27T21:54:06.091Z,83.80
2023-03-27T21:56:35.219Z,83.88
2023-03-27T21:59:03.969Z,84.70
2023-03-27T22:01:33.046Z,84.71
2023-03-27T22:04:03.132Z,84.49
2023-03-27T22:06:32.496Z,84.53
2023-03-27T22:09:01.562Z,84.59
2023-03-27T22:11:30.712Z,84.90
2023-03-27T22:14:00.160Z,85.37
2023-03-27T22:16:29.829Z,85.40
2023-03-27T22:18:58.791Z,85.75
2023-03-27T22:21:30.232Z,86.29
2023-03-27T22:24:00.548Z,86.13
2023-03-27T22:26:35.163Z,86.30
2023-03-27T22:29:05.080Z,86.19
2023-03-27T22:31:33.855Z,86.82
2023-03-27T22:34:05.240Z,86.46
2023-03-27T22:36:35.169Z,86.44
2023-03-27T22:39:04.092Z,87.16
2023-03-27T22:41:33.043Z,86.92
2023-03-27T22:44:02.679Z,87.29
2023-03-27T22:46:31.709Z,87.43
2023-03-27T22:49:00.679Z,87.33
2023-03-27T22:51:31.843Z,87.77
2023-03-27T22:54:01.168Z,87.79
2023-03-27T22:56:30.023Z,87.67
2023-03-27T22:58:59.217Z,87.75
2023-03-27T23:01:28.088Z,88.22
2023-03-27T23:03:57.345Z,88.34
2023-03-27T23:06:26.462Z,88.69
2023-03-27T23:08:55.588Z,88.44
2023-03-27T23:11:24.636Z,87.75
2023-03-27T23:13:53.611Z,88.19
2023-03-27T23:16:22.509Z,88.21
2023-03-27T23:18:51.598Z,88.30
2023-03-27T23:21:20.473Z,88.69
2023-03-27T23:23:49.641Z,88.51
2023-03-27T23:26:19.098Z,88.03
2023-03-27T23:28:48.329Z,88.10
2023-03-27T23:31:19.623Z,88.08
2023-03-27T23:33:51.643Z,87.85
2023-03-27T23:36:23.500Z,87.32
2023-03-27T23:38:53.811Z,87.46
2023-03-27T23:41:23.406Z,87.22
2023-03-27T23:43:52.437Z,87.44
2023-03-27T23:46:21.430Z,87.10
2023-03-27T23:48:50.374Z,87.21
2023-03-27T23:51:19.423Z,87.67
2023-03-27T23:53:48.111Z,87.59
2023-03-27T23:56:17.098Z,87.56
2023-03-27T23:58:45.965Z,87.74
